sensor_id;sensor_type;location;lat;lon;timestamp;pressure;altitude;pressure_sealevel;temperature;humidity
59545;BME280;45368;55.002;-1.592;2023-04-21T00:01:27;101726.73;;;8.62;57.13
59545;BME280;45368;55.002;-1.592;2023-04-21T00:03:54;101725.05;;;8.06;58.51
59545;BME280;45368;55.002;-1.592;2023-04-21T00:06:22;101720.84;;;8.50;57.44
59545;BME280;45368;55.002;-1.592;2023-04-21T00:08:49;101721.01;;;7.77;59.62
59545;BME280;45368;55.002;-1.592;2023-04-21T00:11:17;101716.40;;;8.01;58.84
59545;BME280;45368;55.002;-1.592;2023-04-21T00:13:44;101707.87;;;8.86;56.25
59545;BME280;45368;55.002;-1.592;2023-04-21T00:16:12;101711.35;;;8.80;56.68
59545;BME280;45368;55.002;-1.592;2023-04-21T00:18:39;101716.09;;;8.66;55.90
59545;BME280;45368;55.002;-1.592;2023-04-21T00:21:06;101717.45;;;9.09;56.11
59545;BME280;45368;55.002;-1.592;2023-04-21T00:23:33;101712.21;;;8.91;55.68
59545;BME280;45368;55.002;-1.592;2023-04-21T00:26:00;101710.54;;;9.20;55.34
59545;BME280;45368;55.002;-1.592;2023-04-21T00:28:27;101717.59;;;8.13;57.94
59545;BME280;45368;55.002;-1.592;2023-04-21T00:30:54;101714.13;;;9.18;55.46
59545;BME280;45368;55.002;-1.592;2023-04-21T00:33:21;101718.48;;;9.12;55.31
59545;BME280;45368;55.002;-1.592;2023-04-21T00:35:49;101714.80;;;9.28;55.13
59545;BME280;45368;55.002;-1.592;2023-04-21T00:38:16;101721.67;;;8.55;56.68
59545;BME280;45368;55.002;-1.592;2023-04-21T00:40:54;101721.89;;;9.23;55.56
59545;BME280;45368;55.002;-1.592;2023-04-21T00:43:22;101723.57;;;8.50;56.97
59545;BME280;45368;55.002;-1.592;2023-04-21T00:45:51;101725.41;;;8.68;56.11
59545;BME280;45368;55.002;-1.592;2023-04-21T00:48:19;101716.54;;;9.81;53.55
59545;BME280;45368;55.002;-1.592;2023-04-21T00:51:17;101709.24;;;10.33;52.72
59545;BME280;45368;55.002;-1.592;2023-04-21T00:58:03;101705.12;;;8.11;59.43
59545;BME280;45368;55.002;-1.592;2023-04-21T01:00:30;101695.86;;;7.44;59.61
59545;BME280;45368;55.002;-1.592;2023-04-21T01:07:38;101675.09;;;7.99;59.17
59545;BME280;45368;55.002;-1.592;2023-04-21T01:10:07;101668.11;;;8.17;58.90
59545;BME280;45368;55.002;-1.592;2023-04-21T01:12:41;101665.72;;;7.72;60.73
59545;BME280;45368;55.002;-1.592;2023-04-21T01:15:10;101656.32;;;7.59;62.10
59545;BME280;45368;55.002;-1.592;2023-04-21T01:17:37;101651.32;;;7.62;61.68
59545;BME280;45368;55.002;-1.592;2023-04-21T01:20:10;101654.82;;;6.73;64.11
59545;BME280;45368;55.002;-1.592;2023-04-21T01:22:39;101654.42;;;6.68;64.35
59545;BME280;45368;55.002;-1.592;2023-04-21T01:25:12;101651.35;;;7.09;63.39
59545;BME280;45368;55.002;-1.592;2023-04-21T01:27:39;101654.71;;;6.05;64.99
59545;BME280;45368;55.002;-1.592;2023-04-21T01:30:07;101654.60;;;6.55;64.66
59545;BME280;45368;55.002;-1.592;2023-04-21T01:32:35;101649.97;;;6.95;64.28
59545;BME280;45368;55.002;-1.592;2023-04-21T01:35:02;101646.76;;;7.18;63.92
59545;BME280;45368;55.002;-1.592;2023-04-21T01:37:32;101649.90;;;6.80;64.78
59545;BME280;45368;55.002;-1.592;2023-04-21T01:40:02;101650.01;;;6.77;64.54
59545;BME280;45368;55.002;-1.592;2023-04-21T01:42:31;101644.17;;;6.99;63.53
59545;BME280;45368;55.002;-1.592;2023-04-21T01:44:59;101643.64;;;6.87;63.98
59545;BME280;45368;55.002;-1.592;2023-04-21T01:47:26;101643.25;;;6.62;64.96
59545;BME280;45368;55.002;-1.592;2023-04-21T01:49:54;101641.94;;;6.93;64.70
59545;BME280;45368;55.002;-1.592;2023-04-21T01:52:21;101636.64;;;7.42;63.54
59545;BME280;45368;55.002;-1.592;2023-04-21T01:54:48;101629.08;;;7.04;63.32
59545;BME280;45368;55.002;-1.592;2023-04-21T01:57:16;101617.63;;;7.69;62.15
59545;BME280;45368;55.002;-1.592;2023-04-21T01:59:44;101617.69;;;7.45;62.70
59545;BME280;45368;55.002;-1.592;2023-04-21T02:02:11;101615.37;;;6.84;64.69
59545;BME280;45368;55.002;-1.592;2023-04-21T02:04:38;101617.39;;;6.46;65.80
59545;BME280;45368;55.002;-1.592;2023-04-21T02:07:05;101613.44;;;6.29;67.20
59545;BME280;45368;55.002;-1.592;2023-04-21T02:09:33;101607.56;;;6.92;65.75
59545;BME280;45368;55.002;-1.592;2023-04-21T02:12:00;101605.79;;;7.22;64.41
59545;BME280;45368;55.002;-1.592;2023-04-21T02:14:27;101604.62;;;6.70;66.94
59545;BME280;45368;55.002;-1.592;2023-04-21T02:16:54;101606.26;;;7.18;65.66
59545;BME280;45368;55.002;-1.592;2023-04-21T02:19:21;101601.81;;;6.84;66.23
59545;BME280;45368;55.002;-1.592;2023-04-21T02:21:48;101589.58;;;7.77;63.61
59545;BME280;45368;55.002;-1.592;2023-04-21T02:24:16;101584.93;;;7.57;63.40
59545;BME280;45368;55.002;-1.592;2023-04-21T02:26:43;101590.64;;;6.54;66.32
59545;BME280;45368;55.002;-1.592;2023-04-21T02:29:10;101587.37;;;6.23;67.18
59545;BME280;45368;55.002;-1.592;2023-04-21T02:31:38;101584.42;;;6.95;66.37
59545;BME280;45368;55.002;-1.592;2023-04-21T02:34:05;101577.53;;;7.12;65.60
59545;BME280;45368;55.002;-1.592;2023-04-21T02:36:32;101576.73;;;6.76;65.56
59545;BME280;45368;55.002;-1.592;2023-04-21T02:38:59;101568.97;;;7.00;66.53
59545;BME280;45368;55.002;-1.592;2023-04-21T02:41:27;101570.09;;;7.55;65.10
59545;BME280;45368;55.002;-1.592;2023-04-21T02:43:54;101567.18;;;6.73;66.85
59545;BME280;45368;55.002;-1.592;2023-04-21T02:46:21;101563.86;;;6.51;67.94
59545;BME280;45368;55.002;-1.592;2023-04-21T02:48:49;101567.44;;;6.41;69.27
59545;BME280;45368;55.002;-1.592;2023-04-21T02:51:16;101557.71;;;6.64;66.79
59545;BME280;45368;55.002;-1.592;2023-04-21T02:53:44;101563.24;;;6.39;68.33
59545;BME280;45368;55.002;-1.592;2023-04-21T02:56:12;101550.70;;;7.28;65.25
59545;BME280;45368;55.002;-1.592;2023-04-21T02:58:39;101552.85;;;7.50;65.30
59545;BME280;45368;55.002;-1.592;2023-04-21T03:01:06;101543.82;;;7.89;63.09
59545;BME280;45368;55.002;-1.592;2023-04-21T03:03:34;101548.07;;;6.53;67.46
59545;BME280;45368;55.002;-1.592;2023-04-21T03:06:03;101543.73;;;6.93;66.79
59545;BME280;45368;55.002;-1.592;2023-04-21T03:08:31;101539.85;;;6.57;66.58
59545;BME280;45368;55.002;-1.592;2023-04-21T03:10:59;101537.58;;;6.48;67.12
59545;BME280;45368;55.002;-1.592;2023-04-21T03:13:26;101535.00;;;6.80;66.78
59545;BME280;45368;55.002;-1.592;2023-04-21T03:15:54;101542.19;;;6.44;67.54
59545;BME280;45368;55.002;-1.592;2023-04-21T03:18:22;101541.23;;;6.06;68.68
59545;BME280;45368;55.002;-1.592;2023-04-21T03:20:49;101528.82;;;6.57;67.30
59545;BME280;45368;55.002;-1.592;2023-04-21T03:23:16;101528.12;;;6.54;67.55
59545;BME280;45368;55.002;-1.592;2023-04-21T03:25:43;101528.16;;;6.70;66.75
59545;BME280;45368;55.002;-1.592;2023-04-21T03:28:10;101518.27;;;7.52;64.25
59545;BME280;45368;55.002;-1.592;2023-04-21T03:30:37;101525.34;;;7.19;65.58
59545;BME280;45368;55.002;-1.592;2023-04-21T03:33:04;101529.41;;;6.06;68.61
59545;BME280;45368;55.002;-1.592;2023-04-21T03:35:31;101526.18;;;6.37;68.15
59545;BME280;45368;55.002;-1.592;2023-04-21T03:37:58;101517.44;;;6.45;68.36
59545;BME280;45368;55.002;-1.592;2023-04-21T03:40:26;101516.91;;;7.03;66.73
59545;BME280;45368;55.002;-1.592;2023-04-21T03:42:53;101515.74;;;6.51;68.27
59545;BME280;45368;55.002;-1.592;2023-04-21T03:45:20;101511.73;;;6.85;66.65
59545;BME280;45368;55.002;-1.592;2023-04-21T03:47:48;101504.81;;;6.23;67.33
59545;BME280;45368;55.002;-1.592;2023-04-21T03:50:18;101494.96;;;7.32;65.22
59545;BME280;45368;55.002;-1.592;2023-04-21T03:52:45;101497.47;;;6.82;66.09
59545;BME280;45368;55.002;-1.592;2023-04-21T03:55:13;101493.87;;;7.17;64.58
59545;BME280;45368;55.002;-1.592;2023-04-21T03:57:40;101491.29;;;6.65;66.32
59545;BME280;45368;55.002;-1.592;2023-04-21T04:00:09;101484.80;;;7.46;64.27
59545;BME280;45368;55.002;-1.592;2023-04-21T04:02:37;101478.64;;;7.39;64.24
59545;BME280;45368;55.002;-1.592;2023-04-21T04:05:05;101480.80;;;6.80;67.05
59545;BME280;45368;55.002;-1.592;2023-04-21T04:07:34;101473.51;;;7.33;65.18
59545;BME280;45368;55.002;-1.592;2023-04-21T04:10:02;101468.95;;;6.50;67.98
59545;BME280;45368;55.002;-1.592;2023-04-21T04:12:29;101473.43;;;6.35;68.35
59545;BME280;45368;55.002;-1.592;2023-04-21T04:14:56;101471.79;;;6.81;66.91
59545;BME280;45368;55.002;-1.592;2023-04-21T04:17:24;101464.60;;;6.94;65.53
59545;BME280;45368;55.002;-1.592;2023-04-21T04:19:51;101461.82;;;7.65;64.08
59545;BME280;45368;55.002;-1.592;2023-04-21T04:22:18;101467.18;;;7.14;65.56
59545;BME280;45368;55.002;-1.592;2023-04-21T04:24:45;101459.18;;;6.93;66.01
59545;BME280;45368;55.002;-1.592;2023-04-21T04:27:13;101462.60;;;6.67;67.26
59545;BME280;45368;55.002;-1.592;2023-04-21T04:29:39;101458.46;;;6.69;67.32
59545;BME280;45368;55.002;-1.592;2023-04-21T04:32:07;101462.10;;;6.77;67.39
59545;BME280;45368;55.002;-1.592;2023-04-21T04:34:35;101454.73;;;6.55;67.68
59545;BME280;45368;55.002;-1.592;2023-04-21T04:37:02;101454.16;;;6.42;67.32
59545;BME280;45368;55.002;-1.592;2023-04-21T04:39:30;101452.67;;;7.04;66.05
59545;BME280;45368;55.002;-1.592;2023-04-21T04:41:57;101448.35;;;6.84;65.87
59545;BME280;45368;55.002;-1.592;2023-04-21T04:44:24;101447.62;;;6.86;65.92
59545;BME280;45368;55.002;-1.592;2023-04-21T04:46:51;101449.33;;;6.90;66.47
59545;BME280;45368;55.002;-1.592;2023-04-21T04:49:18;101447.60;;;6.14;68.63
59545;BME280;45368;55.002;-1.592;2023-04-21T04:51:46;101437.33;;;7.24;66.18
59545;BME280;45368;55.002;-1.592;2023-04-21T04:54:13;101433.15;;;6.32;69.16
59545;BME280;45368;55.002;-1.592;2023-04-21T04:56:41;101435.67;;;6.30;69.04
59545;BME280;45368;55.002;-1.592;2023-04-21T04:59:08;101429.72;;;6.47;68.74
59545;BME280;45368;55.002;-1.592;2023-04-21T05:01:35;101427.81;;;6.57;68.15
59545;BME280;45368;55.002;-1.592;2023-04-21T05:04:03;101427.86;;;6.38;68.95
59545;BME280;45368;55.002;-1.592;2023-04-21T05:06:31;101426.31;;;6.73;67.41
59545;BME280;45368;55.002;-1.592;2023-04-21T05:08:58;101425.99;;;6.79;68.40
59545;BME280;45368;55.002;-1.592;2023-04-21T05:11:25;101423.49;;;7.09;67.15
59545;BME280;45368;55.002;-1.592;2023-04-21T05:13:52;101419.07;;;6.97;67.01
59545;BME280;45368;55.002;-1.592;2023-04-21T05:16:19;101422.99;;;7.10;67.12
59545;BME280;45368;55.002;-1.592;2023-04-21T05:18:46;101423.55;;;6.69;67.93
59545;BME280;45368;55.002;-1.592;2023-04-21T05:21:13;101427.26;;;5.92;70.11
59545;BME280;45368;55.002;-1.592;2023-04-21T05:23:48;101422.70;;;5.95;69.59
59545;BME280;45368;55.002;-1.592;2023-04-21T05:26:16;101420.01;;;6.77;67.84
59545;BME280;45368;55.002;-1.592;2023-04-21T05:28:43;101425.41;;;6.38;69.15
59545;BME280;45368;55.002;-1.592;2023-04-21T05:31:10;101424.35;;;6.09;70.33
59545;BME280;45368;55.002;-1.592;2023-04-21T05:33:37;101417.99;;;6.40;70.13
59545;BME280;45368;55.002;-1.592;2023-04-21T05:36:09;101423.36;;;6.32;69.10
59545;BME280;45368;55.002;-1.592;2023-04-21T05:38:41;101421.71;;;6.83;68.08
59545;BME280;45368;55.002;-1.592;2023-04-21T05:41:13;101419.32;;;6.92;67.79
59545;BME280;45368;55.002;-1.592;2023-04-21T05:43:50;101426.69;;;6.29;69.52
59545;BME280;45368;55.002;-1.592;2023-04-21T05:46:18;101418.58;;;6.89;67.64
59545;BME280;45368;55.002;-1.592;2023-04-21T05:48:51;101421.06;;;6.15;67.86
59545;BME280;45368;55.002;-1.592;2023-04-21T05:51:19;101427.37;;;6.13;69.56
59545;BME280;45368;55.002;-1.592;2023-04-21T05:53:46;101430.03;;;6.41;68.95
59545;BME280;45368;55.002;-1.592;2023-04-21T05:56:14;101422.91;;;6.01;70.30
59545;BME280;45368;55.002;-1.592;2023-04-21T05:58:41;101428.74;;;5.95;69.55
59545;BME280;45368;55.002;-1.592;2023-04-21T06:01:09;101420.50;;;6.88;67.36
59545;BME280;45368;55.002;-1.592;2023-04-21T06:04:16;101422.44;;;7.14;66.70
59545;BME280;45368;55.002;-1.592;2023-04-21T06:06:43;101421.93;;;6.80;67.29
59545;BME280;45368;55.002;-1.592;2023-04-21T06:09:10;101426.12;;;6.45;68.52
59545;BME280;45368;55.002;-1.592;2023-04-21T06:11:37;101420.15;;;7.00;67.17
59545;BME280;45368;55.002;-1.592;2023-04-21T06:14:04;101419.85;;;6.85;67.26
59545;BME280;45368;55.002;-1.592;2023-04-21T06:16:31;101415.14;;;7.62;66.59
59545;BME280;45368;55.002;-1.592;2023-04-21T06:18:59;101416.43;;;6.72;68.53
59545;BME280;45368;55.002;-1.592;2023-04-21T06:21:26;101419.46;;;6.48;68.88
59545;BME280;45368;55.002;-1.592;2023-04-21T06:23:53;101408.71;;;7.51;65.41
59545;BME280;45368;55.002;-1.592;2023-04-21T06:26:21;101407.29;;;7.31;65.63
59545;BME280;45368;55.002;-1.592;2023-04-21T06:28:49;101412.56;;;7.28;66.94
59545;BME280;45368;55.002;-1.592;2023-04-21T06:31:16;101400.40;;;7.52;66.69
59545;BME280;45368;55.002;-1.592;2023-04-21T06:33:44;101404.77;;;6.43;69.56
59545;BME280;45368;55.002;-1.592;2023-04-21T06:36:11;101394.37;;;7.21;67.72
59545;BME280;45368;55.002;-1.592;2023-04-21T06:38:38;101387.48;;;7.73;64.82
59545;BME280;45368;55.002;-1.592;2023-04-21T06:41:06;101391.21;;;6.68;68.75
59545;BME280;45368;55.002;-1.592;2023-04-21T06:43:32;101384.16;;;7.44;67.04
59545;BME280;45368;55.002;-1.592;2023-04-21T06:46:00;101383.15;;;7.00;67.26
59545;BME280;45368;55.002;-1.592;2023-04-21T06:48:27;101377.83;;;6.69;67.82
59545;BME280;45368;55.002;-1.592;2023-04-21T06:50:54;101377.44;;;7.20;67.38
59545;BME280;45368;55.002;-1.592;2023-04-21T06:53:22;101377.10;;;7.24;68.20
59545;BME280;45368;55.002;-1.592;2023-04-21T06:55:50;101370.60;;;6.71;69.02
59545;BME280;45368;55.002;-1.592;2023-04-21T06:58:16;101376.13;;;7.07;67.96
59545;BME280;45368;55.002;-1.592;2023-04-21T07:00:44;101372.43;;;6.59;69.03
59545;BME280;45368;55.002;-1.592;2023-04-21T07:03:12;101371.01;;;7.19;68.52
59545;BME280;45368;55.002;-1.592;2023-04-21T07:05:40;101366.22;;;7.31;67.28
59545;BME280;45368;55.002;-1.592;2023-04-21T07:08:07;101367.96;;;7.08;67.22
59545;BME280;45368;55.002;-1.592;2023-04-21T07:10:35;101367.49;;;6.59;67.45
59545;BME280;45368;55.002;-1.592;2023-04-21T07:13:07;101366.73;;;6.91;67.88
59545;BME280;45368;55.002;-1.592;2023-04-21T07:15:34;101361.06;;;6.48;68.82
59545;BME280;45368;55.002;-1.592;2023-04-21T07:18:02;101341.12;;;7.74;66.26
59545;BME280;45368;55.002;-1.592;2023-04-21T07:20:29;101348.52;;;7.62;65.67
59545;BME280;45368;55.002;-1.592;2023-04-21T07:22:56;101346.91;;;6.73;67.38
59545;BME280;45368;55.002;-1.592;2023-04-21T07:25:23;101349.92;;;7.38;65.75
59545;BME280;45368;55.002;-1.592;2023-04-21T07:27:51;101356.44;;;7.33;65.26
59545;BME280;45368;55.002;-1.592;2023-04-21T07:30:18;101344.48;;;7.24;66.09
59545;BME280;45368;55.002;-1.592;2023-04-21T07:32:45;101350.55;;;7.73;65.75
59545;BME280;45368;55.002;-1.592;2023-04-21T07:35:13;101346.99;;;7.58;65.41
59545;BME280;45368;55.002;-1.592;2023-04-21T07:37:41;101346.98;;;7.29;65.48
59545;BME280;45368;55.002;-1.592;2023-04-21T07:40:09;101350.40;;;7.79;64.62
59545;BME280;45368;55.002;-1.592;2023-04-21T07:42:37;101350.03;;;8.26;62.85
59545;BME280;45368;55.002;-1.592;2023-04-21T07:45:05;101344.87;;;7.75;64.61
59545;BME280;45368;55.002;-1.592;2023-04-21T07:47:33;101337.11;;;7.71;64.37
59545;BME280;45368;55.002;-1.592;2023-04-21T07:50:01;101333.29;;;8.23;63.85
59545;BME280;45368;55.002;-1.592;2023-04-21T07:52:29;101331.49;;;6.99;66.69
59545;BME280;45368;55.002;-1.592;2023-04-21T07:54:56;101337.60;;;7.72;64.87
59545;BME280;45368;55.002;-1.592;2023-04-21T07:57:28;101319.82;;;8.02;64.34
59545;BME280;45368;55.002;-1.592;2023-04-21T07:59:56;101322.80;;;7.25;65.38
59545;BME280;45368;55.002;-1.592;2023-04-21T08:02:28;101326.39;;;7.60;65.61
59545;BME280;45368;55.002;-1.592;2023-04-21T08:04:55;101320.47;;;8.30;64.00
59545;BME280;45368;55.002;-1.592;2023-04-21T08:07:23;101317.72;;;7.25;66.77
59545;BME280;45368;55.002;-1.592;2023-04-21T08:09:50;101322.94;;;7.22;66.89
59545;BME280;45368;55.002;-1.592;2023-04-21T08:12:17;101310.58;;;7.67;65.49
59545;BME280;45368;55.002;-1.592;2023-04-21T08:14:45;101319.74;;;7.17;65.39
59545;BME280;45368;55.002;-1.592;2023-04-21T08:17:12;101318.81;;;7.63;64.40
59545;BME280;45368;55.002;-1.592;2023-04-21T08:19:39;101320.97;;;8.22;63.72
59545;BME280;45368;55.002;-1.592;2023-04-21T08:22:05;101311.69;;;8.84;60.92
59545;BME280;45368;55.002;-1.592;2023-04-21T08:24:32;101316.63;;;7.97;63.47
59545;BME280;45368;55.002;-1.592;2023-04-21T08:27:00;101319.45;;;8.05;63.71
59545;BME280;45368;55.002;-1.592;2023-04-21T08:29:28;101317.08;;;7.84;63.91
59545;BME280;45368;55.002;-1.592;2023-04-21T08:31:55;101311.31;;;7.82;64.31
59545;BME280;45368;55.002;-1.592;2023-04-21T08:34:22;101316.39;;;7.83;63.77
59545;BME280;45368;55.002;-1.592;2023-04-21T08:36:49;101313.98;;;7.76;64.60
59545;BME280;45368;55.002;-1.592;2023-04-21T08:39:16;101310.90;;;8.61;62.76
59545;BME280;45368;55.002;-1.592;2023-04-21T08:41:45;101307.60;;;8.97;61.91
59545;BME280;45368;55.002;-1.592;2023-04-21T08:44:13;101311.09;;;8.52;62.54
59545;BME280;45368;55.002;-1.592;2023-04-21T08:46:43;101303.21;;;8.02;63.37
59545;BME280;45368;55.002;-1.592;2023-04-21T08:49:12;101309.99;;;8.22;63.47
59545;BME280;45368;55.002;-1.592;2023-04-21T08:51:41;101302.65;;;8.20;63.55
59545;BME280;45368;55.002;-1.592;2023-04-21T08:54:09;101304.13;;;8.31;63.64
59545;BME280;45368;55.002;-1.592;2023-04-21T08:56:36;101304.83;;;8.15;63.73
59545;BME280;45368;55.002;-1.592;2023-04-21T08:59:05;101297.43;;;9.24;60.78
59545;BME280;45368;55.002;-1.592;2023-04-21T09:01:32;101296.03;;;9.33;59.85
59545;BME280;45368;55.002;-1.592;2023-04-21T09:04:15;101299.21;;;8.28;63.68
59545;BME280;45368;55.002;-1.592;2023-04-21T09:06:42;101297.26;;;8.69;62.41
59545;BME280;45368;55.002;-1.592;2023-04-21T09:09:09;101295.91;;;7.98;64.66
59545;BME280;45368;55.002;-1.592;2023-04-21T09:11:36;101291.62;;;8.24;63.56
59545;BME280;45368;55.002;-1.592;2023-04-21T09:14:03;101292.23;;;7.93;64.34
59545;BME280;45368;55.002;-1.592;2023-04-21T09:16:31;101293.08;;;7.93;64.67
59545;BME280;45368;55.002;-1.592;2023-04-21T09:19:00;101284.27;;;7.81;64.08
59545;BME280;45368;55.002;-1.592;2023-04-21T09:21:28;101287.14;;;7.46;65.89
59545;BME280;45368;55.002;-1.592;2023-04-21T09:23:56;101285.69;;;7.27;66.30
59545;BME280;45368;55.002;-1.592;2023-04-21T09:26:23;101275.80;;;6.86;66.73
59545;BME280;45368;55.002;-1.592;2023-04-21T09:28:52;101279.75;;;7.27;65.89
59545;BME280;45368;55.002;-1.592;2023-04-21T09:31:21;101280.40;;;7.77;65.12
59545;BME280;45368;55.002;-1.592;2023-04-21T09:33:50;101277.06;;;8.00;64.17
59545;BME280;45368;55.002;-1.592;2023-04-21T09:36:19;101273.84;;;7.30;65.57
59545;BME280;45368;55.002;-1.592;2023-04-21T09:38:49;101278.31;;;8.24;63.06
59545;BME280;45368;55.002;-1.592;2023-04-21T09:41:22;101272.09;;;8.16;63.70
59545;BME280;45368;55.002;-1.592;2023-04-21T09:43:49;101272.32;;;8.61;62.75
59545;BME280;45368;55.002;-1.592;2023-04-21T09:46:17;101271.93;;;8.57;62.29
59545;BME280;45368;55.002;-1.592;2023-04-21T09:48:45;101271.54;;;8.55;63.10
59545;BME280;45368;55.002;-1.592;2023-04-21T09:51:14;101264.04;;;8.80;62.50
59545;BME280;45368;55.002;-1.592;2023-04-21T09:53:44;101261.96;;;8.87;61.72
59545;BME280;45368;55.002;-1.592;2023-04-21T09:56:14;101257.11;;;8.71;62.29
59545;BME280;45368;55.002;-1.592;2023-04-21T09:58:46;101256.28;;;8.91;61.16
59545;BME280;45368;55.002;-1.592;2023-04-21T10:01:14;101261.21;;;8.74;61.77
59545;BME280;45368;55.002;-1.592;2023-04-21T10:03:43;101259.51;;;8.89;62.27
59545;BME280;45368;55.002;-1.592;2023-04-21T10:06:11;101263.22;;;8.57;63.24
59545;BME280;45368;55.002;-1.592;2023-04-21T10:08:39;101256.93;;;8.53;62.78
59545;BME280;45368;55.002;-1.592;2023-04-21T10:11:06;101250.65;;;8.51;62.21
59545;BME280;45368;55.002;-1.592;2023-04-21T10:13:36;101248.83;;;9.10;60.77
59545;BME280;45368;55.002;-1.592;2023-04-21T10:16:05;101249.30;;;9.14;60.11
59545;BME280;45368;55.002;-1.592;2023-04-21T10:18:35;101241.98;;;9.18;61.11
59545;BME280;45368;55.002;-1.592;2023-04-21T10:21:05;101245.15;;;8.67;62.01
59545;BME280;45368;55.002;-1.592;2023-04-21T10:23:36;101245.51;;;9.38;60.20
59545;BME280;45368;55.002;-1.592;2023-04-21T10:26:10;101242.84;;;9.56;59.17
59545;BME280;45368;55.002;-1.592;2023-04-21T10:28:48;101241.82;;;9.67;59.14
59545;BME280;45368;55.002;-1.592;2023-04-21T10:31:20;101231.66;;;9.39;59.23
59545;BME280;45368;55.002;-1.592;2023-04-21T10:35:14;101242.43;;;10.05;57.97
59545;BME280;45368;55.002;-1.592;2023-04-21T10:38:05;101245.90;;;9.08;59.29
59545;BME280;45368;55.002;-1.592;2023-04-21T10:46:45;101241.05;;;9.23;59.59
59545;BME280;45368;55.002;-1.592;2023-04-21T10:49:29;101238.13;;;9.38;59.14
59545;BME280;45368;55.002;-1.592;2023-04-21T10:52:05;101232.33;;;10.02;57.04
59545;BME280;45368;55.002;-1.592;2023-04-21T10:55:30;101230.99;;;10.07;57.40
59545;BME280;45368;55.002;-1.592;2023-04-21T10:58:19;101226.89;;;9.19;58.56
59545;BME280;45368;55.002;-1.592;2023-04-21T11:00:53;101238.38;;;9.74;57.77
59545;BME280;45368;55.002;-1.592;2023-04-21T11:03:21;101225.55;;;9.35;59.64
59545;BME280;45368;55.002;-1.592;2023-04-21T11:05:49;101232.33;;;9.63;59.06
59545;BME280;45368;55.002;-1.592;2023-04-21T11:08:16;101219.77;;;9.66;58.63
59545;BME280;45368;55.002;-1.592;2023-04-21T11:10:55;101236.53;;;8.98;60.07
59545;BME280;45368;55.002;-1.592;2023-04-21T11:13:25;101234.04;;;8.72;61.01
59545;BME280;45368;55.002;-1.592;2023-04-21T11:15:58;101230.08;;;8.99;60.97
59545;BME280;45368;55.002;-1.592;2023-04-21T11:18:36;101229.70;;;8.71;61.04
59545;BME280;45368;55.002;-1.592;2023-04-21T11:21:08;101217.71;;;8.98;60.71
59545;BME280;45368;55.002;-1.592;2023-04-21T11:23:39;101218.23;;;8.40;61.32
59545;BME280;45368;55.002;-1.592;2023-04-21T11:26:07;101212.68;;;9.49;59.16
59545;BME280;45368;55.002;-1.592;2023-04-21T11:28:34;101214.37;;;9.25;58.82
59545;BME280;45368;55.002;-1.592;2023-04-21T11:31:02;101214.90;;;8.98;58.74
59545;BME280;45368;55.002;-1.592;2023-04-21T11:33:29;101214.38;;;8.51;60.77
59545;BME280;45368;55.002;-1.592;2023-04-21T11:35:56;101207.78;;;10.26;57.67
59545;BME280;45368;55.002;-1.592;2023-04-21T11:38:24;101208.89;;;9.21;59.32
59545;BME280;45368;55.002;-1.592;2023-04-21T11:40:51;101215.87;;;8.95;60.49
59545;BME280;45368;55.002;-1.592;2023-04-21T11:43:21;101207.68;;;9.14;60.26
59545;BME280;45368;55.002;-1.592;2023-04-21T11:45:49;101200.65;;;8.60;60.55
59545;BME280;45368;55.002;-1.592;2023-04-21T11:48:16;101185.74;;;8.36;60.80
59545;BME280;45368;55.002;-1.592;2023-04-21T11:50:46;101193.59;;;8.22;62.79
59545;BME280;45368;55.002;-1.592;2023-04-21T11:53:15;101179.84;;;9.23;60.84
59545;BME280;45368;55.002;-1.592;2023-04-21T11:55:44;101182.86;;;8.76;61.13
59545;BME280;45368;55.002;-1.592;2023-04-21T11:58:12;101191.00;;;8.63;61.29
59545;BME280;45368;55.002;-1.592;2023-04-21T12:00:39;101189.44;;;8.99;60.02
59545;BME280;45368;55.002;-1.592;2023-04-21T12:03:08;101204.33;;;8.95;59.84
59545;BME280;45368;55.002;-1.592;2023-04-21T12:05:36;101194.88;;;8.76;60.70
59545;BME280;45368;55.002;-1.592;2023-04-21T12:08:04;101193.82;;;9.10;59.64
59545;BME280;45368;55.002;-1.592;2023-04-21T12:10:31;101190.89;;;9.09;59.73
59545;BME280;45368;55.002;-1.592;2023-04-21T12:12:59;101185.17;;;8.30;62.67
59545;BME280;45368;55.002;-1.592;2023-04-21T12:15:29;101182.42;;;9.07;60.35
59545;BME280;45368;55.002;-1.592;2023-04-21T12:17:56;101187.09;;;9.67;58.79
59545;BME280;45368;55.002;-1.592;2023-04-21T12:20:24;101201.80;;;9.63;58.66
59545;BME280;45368;55.002;-1.592;2023-04-21T12:22:54;101199.12;;;10.43;57.48
59545;BME280;45368;55.002;-1.592;2023-04-21T12:25:26;101211.03;;;9.02;59.71
59545;BME280;45368;55.002;-1.592;2023-04-21T12:27:57;101205.89;;;9.27;60.15
59545;BME280;45368;55.002;-1.592;2023-04-21T12:30:25;101186.02;;;9.80;58.34
59545;BME280;45368;55.002;-1.592;2023-04-21T12:32:52;101182.07;;;9.61;58.14
59545;BME280;45368;55.002;-1.592;2023-04-21T12:35:22;101186.44;;;10.26;57.37
59545;BME280;45368;55.002;-1.592;2023-04-21T12:37:49;101184.89;;;10.14;57.74
59545;BME280;45368;55.002;-1.592;2023-04-21T12:40:17;101182.21;;;10.08;57.60
59545;BME280;45368;55.002;-1.592;2023-04-21T12:42:45;101182.47;;;10.33;55.96
59545;BME280;45368;55.002;-1.592;2023-04-21T12:45:12;101196.37;;;9.30;58.82
59545;BME280;45368;55.002;-1.592;2023-04-21T12:47:39;101197.10;;;9.52;59.08
59545;BME280;45368;55.002;-1.592;2023-04-21T12:50:08;101186.50;;;9.71;57.61
59545;BME280;45368;55.002;-1.592;2023-04-21T12:52:36;101178.75;;;9.43;59.18
59545;BME280;45368;55.002;-1.592;2023-04-21T12:55:03;101176.44;;;9.52;58.63
59545;BME280;45368;55.002;-1.592;2023-04-21T12:57:31;101167.00;;;9.23;59.65
59545;BME280;45368;55.002;-1.592;2023-04-21T12:59:59;101174.22;;;9.59;58.45
59545;BME280;45368;55.002;-1.592;2023-04-21T13:02:27;101161.08;;;9.10;59.97
59545;BME280;45368;55.002;-1.592;2023-04-21T13:04:54;101178.94;;;8.74;61.08
59545;BME280;45368;55.002;-1.592;2023-04-21T13:07:22;101174.31;;;9.09;60.02
59545;BME280;45368;55.002;-1.592;2023-04-21T13:09:50;101177.70;;;8.72;61.08
59545;BME280;45368;55.002;-1.592;2023-04-21T13:12:18;101173.53;;;8.45;61.75
59545;BME280;45368;55.002;-1.592;2023-04-21T13:14:46;101169.56;;;8.83;61.71